Station: Yeppoon  

  Atmospheric Gas Attenuation - ITU Rec 676-11   ----------------- dB/100km -----------------
Date Time Temp RH % AH g/m3 Dew Point Wind Direction Speed kph Gust kph Barometer mB Rainfall Since 9am 24GHz 47GHz 76GHz 122GHz 134GHz 241GHz
08/05 12:30 24.1 21 4.59 0.4 11 17 1018.3 0 10.8 18.0 22.2 57.5 43.7 147.7
08/05 12:20 24 22 4.79 1 7 7 1018.6 0 11.2 18.3 22.8 59.2 45.8 155.0
08/05 12:10 23.7 22 4.71 0.7 11 19 1018.8 0 11.0 18.2 22.7 58.8 45.2 152.7
08/05 12:00 23.5 25 5.29 2.4 15 26 1018.9 0 12.2 19.0 24.5 63.7 51.2 173.8
08/05 11:50 23.6 24 5.1 1.9 19 22 1019.1 0 11.8 18.7 23.9 62.1 49.2 166.8
08/05 11:40 23.1 26 5.37 2.6 15 19 1019.1 0 12.4 19.2 24.9 64.7 52.3 177.6
08/05 11:30 22.9 26 5.31 2.4 13 24 1019.2 0 12.3 19.1 24.8 64.3 51.8 175.9
08/05 11:20 22.3 25 4.94 1.3 17 20 1019.3 0 11.6 18.8 23.8 61.7 48.3 163.6
08/05 11:10 22.5 28 5.59 3.1 15 19 1019.4 0 12.9 19.6 25.8 67.0 55.0 187.1
08/05 11:00 21.9 27 5.21 2.1 15 24 1019.7 0 12.1 19.2 24.8 64.3 51.4 174.4
08/05 10:50 21.8 30 5.76 3.5 15 19 1020 0 13.3 20.0 26.6 69.1 57.3 195.1
08/05 10:40 21.8 30 5.76 3.5 22 28 1020.1 0 13.3 20.0 26.6 69.1 57.3 195.1
08/05 10:30 21.4 31 5.81 3.6 15 17 1020.2 0 13.4 20.1 26.9 69.9 58.1 198.0
08/05 10:20 21.5 32 6.03 4.1 11 15 1020.4 0 13.8 20.4 27.6 71.8 60.4 206.2
08/05 10:10 21.2 34 6.3 4.7 17 19 1020.5 0 14.4 20.8 28.6 74.4 63.6 217.3
08/05 10:00 21 34 6.23 4.6 15 20 1020.7 0 14.3 20.8 28.4 74.0 63.0 215.2
08/05 09:50 20.8 34 6.16 4.4 13 17 1020.6 0 14.1 20.8 28.2 73.5 62.4 213.0
08/05 09:40 20.3 36 6.33 4.8 13 19 1020.6 0 14.5 21.1 29.0 75.5 64.7 220.9
08/05 09:30 20 37 6.39 4.9 17 20 1020.7 0 14.7 21.2 29.3 76.4 65.6 224.1
08/05 09:20 20 39 6.74 5.6 19 22 1020.8 0 15.4 21.7 30.5 79.6 69.6 238.1
08/05 09:10 19.6 40 6.75 5.6 11 13 1020.7 0 15.4 21.8 30.7 80.0 70.0 239.6
08/05 09:00 19.6 42 7.09 6.4 15 20 1020.5 0 16.1 22.3 31.9 83.2 73.9 253.3
08/05 08:50 19.3 42 6.97 6.1 13 17 1020.5 0 15.9 22.2 31.5 82.4 72.8 249.4
08/05 08:40 19.1 44 7.21 6.6 15 20 1020.4 0 16.4 22.6 32.5 84.8 75.8 259.8
08/05 08:30 18.7 42 6.72 5.5 15 24 1020.4 0 15.4 22.0 30.9 80.6 70.4 241.0
08/05 08:20 18.6 46 7.32 6.8 17 20 1020.4 0 16.7 22.9 33.1 86.4 77.6 266.0
08/05 08:10 18.3 46 7.19 6.5 15 17 1020.4 0 16.4 22.8 32.7 85.5 76.3 261.5
08/05 08:00 18.3 50 7.82 7.7 9 17 1020.4 0 17.7 23.7 35.0 91.6 83.9 288.0
08/05 07:50 17.9 50 7.63 7.3 11 13 1020.2 0 17.3 23.5 34.5 90.2 82.0 281.3
08/05 07:40 17.6 49 7.35 6.8 9 11 1020.1 0 16.8 23.2 33.6 87.8 78.9 270.5
08/05 07:30 17.4 49 7.26 6.6 9 15 1020.1 0 16.6 23.1 33.3 87.1 78.0 267.3
08/05 07:20 17.2 50 7.32 6.7 9 11 1020 0 16.7 23.2 33.6 87.9 78.9 270.5
08/05 07:10 17 51 7.38 6.8 9 11 1019.9 0 16.8 23.4 33.9 88.7 79.8 273.7
08/05 07:00 16.9 50 7.19 6.4 9 11 1019.8 0 16.5 23.1 33.3 86.9 77.6 266.0
08/05 06:50 16.5 52 7.3 6.6 9 11 1019.6 0 16.7 23.4 33.8 88.4 79.3 271.9
08/05 06:40 16.3 54 7.49 7 6 7 1019.4 0 17.1 23.7 34.6 90.5 81.8 280.7
08/05 06:30 16 55 7.49 7 9 13 1019.3 0 17.1 23.8 34.7 90.9 82.1 281.8
08/05 06:20 15.9 58 7.85 7.7 9 13 1019.1 0 17.9 24.3 36.1 94.6 86.7 297.8
08/05 06:10 15.9 58 7.85 7.7 7 9 1019 0 17.9 24.3 36.1 94.6 86.7 297.8
08/05 06:00 16.1 56 7.68 7.3 7 9 1018.8 0 17.5 24.0 35.4 92.6 84.4 289.5
08/05 05:50 16.4 54 7.54 7.1 7 9 1018.6 0 17.2 23.7 34.7 90.8 82.3 282.4
08/05 05:40 16.1 63 8.64 9.1 9 9 1018.4 0 19.6 25.5 39.0 102.4 96.5 332.0
08/05 05:30 16.4 59 8.23 8.4 9 9 1018.2 0 18.7 24.8 37.3 97.8 90.9 312.4
08/05 05:20 16.5 57 8 8 7 7 1018.2 0 18.2 24.4 36.4 95.3 87.9 301.9
08/05 05:10 16.6 59 8.33 8.6 7 7 1018 0 18.9 24.8 37.6 98.5 91.9 316.0
08/05 05:00 17 59 8.54 8.9 7 9 1018 0 19.3 25.1 38.2 100.2 94.1 323.7
08/05 04:50 17.2 59 8.64 9.1 7 9 1017.9 0 19.5 25.2 38.5 100.9 95.1 327.3
08/05 04:40 17.6 53 7.95 7.9 0 0 1017.8 0 18.0 24.0 35.7 93.5 86.0 295.5
08/05 04:30 17.9 52 7.94 7.9 9 13 1017.6 0 18.0 23.9 35.5 93.0 85.5 293.9
08/05 04:20 18.2 50 7.77 7.6 11 15 1017.7 0 17.6 23.6 34.8 91.0 83.2 285.6
08/05 04:10 18.2 50 7.77 7.6 7 9 1017.5 0 17.6 23.6 34.8 91.0 83.1 285.6
08/05 04:00 18.5 50 7.91 7.9 9 13 1017.4 0 17.9 23.7 35.1 92.0 84.5 290.4
08/05 03:50 18.5 51 8.07 8.2 11 13 1017.3 0 18.2 23.9 35.7 93.6 86.5 297.2
08/05 03:40 18.7 51 8.16 8.4 9 11 1017.2 0 18.4 24.0 36.0 94.2 87.3 300.3
08/05 03:30 18.8 50 8.05 8.2 9 13 1017.2 0 18.2 23.8 35.5 93.0 85.9 295.2
08/05 03:20 19 51 8.31 8.6 7 9 1017.2 0 18.7 24.1 36.4 95.3 88.8 305.6
08/05 03:10 18.9 51 8.26 8.6 11 13 1017.1 0 18.6 24.1 36.2 95.0 88.3 303.8
08/05 03:00 19 51 8.31 8.6 11 15 1016.9 0 18.7 24.1 36.4 95.3 88.8 305.5
08/05 02:50 19 54 8.8 9.5 9 11 1016.8 0 19.8 24.9 38.2 100.2 94.8 326.6
08/05 02:40 18.9 56 9.07 9.9 7 9 1016.7 0 20.3 25.3 39.3 103.0 98.3 338.8
08/05 02:30 19.1 55 9.02 9.9 9 13 1016.8 0 20.2 25.2 39.0 102.3 97.4 335.8
08/05 02:20 19.3 54 8.96 9.8 9 11 1016.7 0 20.1 25.0 38.7 101.4 96.4 332.3
08/05 02:10 19.1 55 9.02 9.9 9 11 1016.6 0 20.2 25.2 39.0 102.3 97.4 335.7
08/05 02:00 19.2 55 9.07 9.9 9 11 1016.7 0 20.3 25.2 39.1 102.7 97.9 337.5
08/05 01:50 19.3 55 9.12 10 11 13 1016.6 0 20.4 25.3 39.3 103.0 98.4 339.3
08/05 01:40 19.5 57 9.57 10.8 9 9 1016.7 0 21.4 25.9 40.9 107.4 103.8 358.3
08/05 01:30 19.6 54 9.12 10 9 11 1016.7 0 20.4 25.2 39.1 102.7 98.1 338.0
08/05 01:20 19.9 53 9.11 10 11 11 1016.6 0 20.4 25.1 38.9 102.2 97.6 336.3
08/05 01:10 20.3 53 9.32 10.4 13 15 1016.6 0 20.8 25.3 39.5 103.8 99.7 343.7
08/05 01:00 20.4 52 9.2 10.2 13 19 1016.6 0 20.5 25.1 39.0 102.4 98.1 338.1
08/05 00:50 20.2 54 9.44 10.6 13 15 1016.6 0 21.1 25.5 40.0 105.1 101.3 349.4
08/05 00:40 20.2 55 9.62 10.9 11 13 1016.6 0 21.4 25.8 40.7 106.9 103.5 357.3
08/05 00:30 20.6 53 9.48 10.7 9 13 1016.7 0 21.1 25.5 40.0 105.0 101.3 349.4
08/05 00:20 20.9 51 9.29 10.4 9 11 1016.8 0 20.7 25.1 39.1 102.7 98.6 339.9
08/05 00:10 21.5 50 9.43 10.6 15 19 1016.9 0 21.0 25.1 39.4 103.3 99.5 343.4
08/05 00:00 21.8 49 9.4 10.6 15 20 1016.9 0 20.9 25.0 39.1 102.7 98.8 340.8
07/05 23:50 22 48 9.32 10.5 13 19 1016.8 0 20.7 24.8 38.7 101.6 97.6 336.6
07/05 23:40 22.2 48 9.42 10.7 13 17 1016.9 0 20.9 24.9 39.0 102.4 98.5 340.0
07/05 23:30 22.3 47 9.28 10.5 15 20 1017 0 20.6 24.7 38.4 100.9 96.7 333.7
07/05 23:20 22.4 48 9.53 10.9 15 17 1017.1 0 21.1 25.0 39.3 103.2 99.6 343.9
07/05 23:10 22.1 52 10.15 11.8 15 17 1017.2 0 22.4 26.1 41.8 109.8 107.7 372.0
07/05 23:00 21.9 54 10.42 12.2 11 17 1017.3 0 23.0 26.6 42.9 112.9 111.4 384.8
07/05 22:50 21.7 59 11.25 13.3 7 9 1017.2 0 24.8 27.9 46.3 121.8 122.3 423.0
07/05 22:40 21.5 60 11.31 13.4 7 9 1017.2 0 24.9 28.1 46.6 122.7 123.4 426.8
07/05 22:30 21.4 61 11.44 13.6 7 9 1017.2 0 25.2 28.3 47.2 124.3 125.2 433.3
07/05 22:20 21.3 62 11.56 13.7 7 9 1017.2 0 25.5 28.5 47.7 125.7 127.0 439.4
07/05 22:10 21 63 11.54 13.7 7 9 1017.2 0 25.4 28.6 47.8 126.0 127.2 440.2
07/05 22:00 21 72 13.19 15.8 9 9 1017.1 0 28.9 31.4 54.7 144.2 149.6 518.5
07/05 21:50 20.6 69 12.35 14.7 7 9 1017.3 0 27.2 30.1 51.4 135.5 138.8 480.6
07/05 21:40 20.6 82 14.67 17.4 0 0 1017.2 0 32.1 34.1 61.5 162.2 171.7 595.3
07/05 21:30 21.3 86 16.03 18.9 0 0 1017.2 0 35.0 36.3 67.1 177.1 190.2 660.0
07/05 21:20 21.5 86 16.22 19.1 2 6 1017.2 0 35.4 36.6 67.8 179.0 192.6 668.3
07/05 21:10 21.6 87 16.5 19.3 7 7 1017.3 0 35.9 37.1 69.0 182.2 196.6 682.2
07/05 21:00 21.9 87 16.79 19.6 6 9 1017.3 0 36.5 37.5 70.1 185.1 200.2 694.9
07/05 20:50 22 87 16.88 19.7 7 9 1017.1 0 36.7 37.6 70.4 186.0 201.3 698.6
07/05 20:40 22.2 86 16.88 19.7 7 11 1017.1 0 36.7 37.5 70.2 185.5 200.8 696.8
07/05 20:30 22.3 86 16.98 19.8 7 11 1016.9 0 36.9 37.6 70.5 186.4 202.0 701.1
07/05 20:20 22.4 85 16.88 19.8 6 7 1016.9 0 36.7 37.4 70.0 185.0 200.2 694.9
07/05 20:10 22.6 85 17.07 19.9 7 7 1016.9 0 37.1 37.7 70.7 186.8 202.6 703.1
07/05 20:00 22.7 85 17.17 20 6 9 1016.8 0 37.3 37.8 71.1 187.8 203.8 707.4

Last Refresh: 08-May-2026 12:08:49

Bureau of Meteorology